createdAt,value
2019-05-09T00:00:14.262Z,16.00
2019-05-09T00:01:14.454Z,16.00
2019-05-09T00:02:14.051Z,16.00
2019-05-09T00:03:14.053Z,16.00
2019-05-09T00:04:14.113Z,16.00
2019-05-09T00:05:14.026Z,16.00
2019-05-09T00:06:14.080Z,16.00
2019-05-09T00:07:14.139Z,16.00
2019-05-09T00:08:14.166Z,16.00
2019-05-09T00:09:14.024Z,16.00
2019-05-09T00:10:14.276Z,16.00
2019-05-09T00:11:14.697Z,16.00
2019-05-09T00:12:14.404Z,16.00
2019-05-09T00:13:13.991Z,16.00
2019-05-09T00:14:13.935Z,20.00
2019-05-09T00:15:13.915Z,20.00
2019-05-09T00:16:14.701Z,20.00
2019-05-09T00:17:14.236Z,20.00
2019-05-09T00:18:14.384Z,20.00
2019-05-09T00:19:13.909Z,20.00
2019-05-09T00:20:13.866Z,20.00
2019-05-09T00:21:13.858Z,20.00
2019-05-09T00:22:13.956Z,20.00
2019-05-09T00:23:13.826Z,16.00
2019-05-09T00:24:14.056Z,16.00
2019-05-09T00:25:13.858Z,16.00
2019-05-09T00:26:13.804Z,16.00
2019-05-09T00:27:14.282Z,20.00
2019-05-09T00:28:27.576Z,20.00
2019-05-09T00:29:14.086Z,20.00
2019-05-09T00:30:14.011Z,20.00
2019-05-09T00:31:13.789Z,20.00
2019-05-09T00:32:14.386Z,20.00
2019-05-09T00:33:14.315Z,20.00
2019-05-09T00:34:14.371Z,20.00
2019-05-09T00:35:14.219Z,20.00
2019-05-09T00:36:14.115Z,20.00
2019-05-09T00:37:13.693Z,24.00
2019-05-09T00:38:13.666Z,20.00
2019-05-09T00:39:13.658Z,20.00
2019-05-09T00:40:13.651Z,24.00
2019-05-09T00:41:14.076Z,20.00
2019-05-09T00:42:13.886Z,24.00
2019-05-09T00:43:14.383Z,24.00
2019-05-09T00:44:13.915Z,24.00
2019-05-09T00:45:13.589Z,28.00
2019-05-09T00:46:14.130Z,24.00
2019-05-09T00:47:13.620Z,24.00
2019-05-09T00:48:14.103Z,28.00
2019-05-09T00:49:14.105Z,28.00
2019-05-09T00:50:13.547Z,28.00
2019-05-09T00:51:14.098Z,28.00
2019-05-09T00:52:14.074Z,28.00
2019-05-09T00:53:13.856Z,32.00
2019-05-09T00:54:13.642Z,32.00
2019-05-09T00:55:13.480Z,36.00
2019-05-09T00:56:13.624Z,40.00
2019-05-09T00:57:13.827Z,40.00
2019-05-09T00:58:13.685Z,40.00
2019-05-09T00:59:25.463Z,44.00
2019-05-09T01:00:14.659Z,44.00
2019-05-09T01:01:13.426Z,48.00
2019-05-09T01:02:13.414Z,52.00
2019-05-09T01:03:14.152Z,52.00
2019-05-09T01:04:13.783Z,60.00
2019-05-09T01:05:13.451Z,64.00
2019-05-09T01:06:13.585Z,68.00
2019-05-09T01:07:13.933Z,72.00
2019-05-09T01:08:13.813Z,76.00
2019-05-09T01:09:13.833Z,80.00
2019-05-09T01:10:13.523Z,88.00
2019-05-09T01:11:15.560Z,96.00
2019-05-09T01:12:14.377Z,100.00
2019-05-09T01:13:14.242Z,108.00
2019-05-09T01:14:14.227Z,116.00
2019-05-09T01:15:13.476Z,124.00
2019-05-09T01:16:13.527Z,132.00
2019-05-09T01:17:13.764Z,144.00
2019-05-09T01:18:13.393Z,152.00
2019-05-09T01:19:14.104Z,160.00
2019-05-09T01:20:14.695Z,172.00
2019-05-09T01:21:13.571Z,184.00
2019-05-09T01:22:13.344Z,196.00
2019-05-09T01:23:14.251Z,212.00
2019-05-09T01:24:13.869Z,224.00
2019-05-09T01:25:13.498Z,244.00
2019-05-09T01:26:13.389Z,260.00
2019-05-09T01:27:14.212Z,276.00
2019-05-09T01:28:13.996Z,292.00
2019-05-09T01:29:13.719Z,312.00
2019-05-09T01:30:25.458Z,332.00
2019-05-09T01:31:13.402Z,352.00
2019-05-09T01:32:14.408Z,376.00
2019-05-09T01:33:13.671Z,400.00
2019-05-09T01:34:13.398Z,424.00
2019-05-09T01:35:13.269Z,448.00
2019-05-09T01:36:14.422Z,476.00
2019-05-09T01:37:14.089Z,504.00
2019-05-09T01:38:14.186Z,536.00
2019-05-09T01:39:13.820Z,564.00
2019-05-09T01:40:13.312Z,596.00
2019-05-09T01:41:27.253Z,628.00
2019-05-09T01:42:13.985Z,664.00
2019-05-09T01:43:14.044Z,696.00
2019-05-09T01:44:13.477Z,736.00
2019-05-09T01:45:14.145Z,756.00
2019-05-09T01:46:14.454Z,804.00
2019-05-09T01:47:14.088Z,836.00
2019-05-09T01:48:14.007Z,880.00
2019-05-09T01:49:13.806Z,920.00
2019-05-09T01:50:14.034Z,968.00
2019-05-09T01:51:13.872Z,1012.00
2019-05-09T01:52:13.764Z,1060.00
2019-05-09T01:53:13.480Z,1108.00
2019-05-09T01:54:13.312Z,1160.00
2019-05-09T01:55:14.188Z,1212.00
2019-05-09T01:56:13.976Z,1264.00
2019-05-09T01:57:13.838Z,1320.00
2019-05-09T01:58:13.853Z,1376.00
2019-05-09T01:59:13.683Z,1432.00
2019-05-09T02:00:13.301Z,1492.00
2019-05-09T02:01:25.650Z,1552.00
2019-05-09T02:02:14.187Z,1612.00
2019-05-09T02:03:13.944Z,1676.00
2019-05-09T02:04:13.734Z,1736.00
2019-05-09T02:05:13.499Z,1804.00
2019-05-09T02:06:13.672Z,1868.00
2019-05-09T02:07:13.532Z,1932.00
2019-05-09T02:08:14.276Z,2000.00
2019-05-09T02:09:14.066Z,2068.00
2019-05-09T02:10:13.905Z,2132.00
2019-05-09T02:11:13.381Z,2200.00
2019-05-09T02:12:14.202Z,2268.00
2019-05-09T02:13:13.690Z,2340.00
2019-05-09T02:14:13.487Z,2408.00
2019-05-09T02:15:13.134Z,2484.00
2019-05-09T02:16:14.144Z,2556.00
2019-05-09T02:17:13.955Z,2624.00
2019-05-09T02:18:13.769Z,2700.00
2019-05-09T02:19:13.575Z,2772.00
2019-05-09T02:20:13.623Z,2840.00
2019-05-09T02:21:14.531Z,2908.00
2019-05-09T02:22:13.070Z,2984.00
2019-05-09T02:23:14.004Z,3060.00
2019-05-09T02:24:14.124Z,3136.00
2019-05-09T02:25:13.652Z,3208.00
2019-05-09T02:26:13.573Z,3284.00
2019-05-09T02:27:13.263Z,3356.00
2019-05-09T02:28:14.144Z,3432.00
2019-05-09T02:29:13.820Z,3504.00
2019-05-09T02:30:15.261Z,3580.00
2019-05-09T02:31:15.769Z,3656.00
2019-05-09T02:32:25.326Z,3732.00
2019-05-09T02:33:14.568Z,3808.00
2019-05-09T02:34:14.860Z,3888.00
2019-05-09T02:35:12.430Z,3964.00
2019-05-09T02:36:12.435Z,4044.00
2019-05-09T02:37:12.508Z,4120.00
2019-05-09T02:38:12.401Z,4196.00
2019-05-09T02:39:12.385Z,4280.00
2019-05-09T02:40:12.362Z,4360.00
2019-05-09T02:41:12.361Z,4436.00
2019-05-09T02:42:14.274Z,4516.00
2019-05-09T02:43:12.326Z,4600.00
2019-05-09T02:44:12.317Z,4680.00
2019-05-09T02:45:12.313Z,4760.00
2019-05-09T02:46:12.305Z,4836.00
2019-05-09T02:47:12.287Z,4916.00
2019-05-09T02:48:12.319Z,4996.00
2019-05-09T02:49:12.993Z,5072.00
2019-05-09T02:50:12.253Z,5156.00
2019-05-09T02:51:12.246Z,5240.00
2019-05-09T02:52:12.232Z,5332.00
2019-05-09T02:53:12.230Z,6960.00
2019-05-09T02:54:12.263Z,13800.00
2019-05-09T02:55:12.199Z,23456.00
2019-05-09T02:56:12.194Z,32448.00
2019-05-09T02:57:12.189Z,38976.00
2019-05-09T02:58:12.342Z,41536.00
2019-05-09T02:59:12.176Z,41856.00
2019-05-09T03:00:12.194Z,41600.00
2019-05-09T03:01:12.140Z,42368.00
2019-05-09T03:02:12.131Z,42816.00
2019-05-09T03:03:23.580Z,42304.00
2019-05-09T03:04:12.113Z,42944.00
2019-05-09T03:05:12.129Z,42048.00
2019-05-09T03:06:12.082Z,41792.00
2019-05-09T03:07:12.069Z,41408.00
2019-05-09T03:08:12.086Z,41024.00
2019-05-09T03:09:12.050Z,40320.00
2019-05-09T03:10:12.093Z,40128.00
2019-05-09T03:11:12.077Z,40128.00
2019-05-09T03:12:26.018Z,40320.00
2019-05-09T03:13:13.004Z,40672.00
2019-05-09T03:14:12.015Z,41376.00
2019-05-09T03:15:11.981Z,41600.00
2019-05-09T03:16:11.966Z,41280.00
2019-05-09T03:17:12.000Z,41216.00
2019-05-09T03:18:11.952Z,41792.00
2019-05-09T03:19:11.935Z,41568.00
2019-05-09T03:20:11.930Z,41728.00
2019-05-09T03:21:11.962Z,42112.00
2019-05-09T03:22:11.913Z,41952.00
2019-05-09T03:23:11.938Z,41856.00
2019-05-09T03:24:11.876Z,43040.00
2019-05-09T03:25:11.906Z,43424.00
2019-05-09T03:26:11.860Z,42848.00
2019-05-09T03:27:11.847Z,42880.00
2019-05-09T03:28:11.838Z,43712.00
2019-05-09T03:29:11.866Z,44480.00
2019-05-09T03:30:12.487Z,44128.00
2019-05-09T03:31:11.810Z,43552.00
2019-05-09T03:32:12.513Z,44192.00
2019-05-09T03:33:11.780Z,45888.00
2019-05-09T03:34:23.591Z,45856.00
2019-05-09T03:35:11.758Z,46176.00
2019-05-09T03:36:11.748Z,46208.00
2019-05-09T03:37:11.732Z,46208.00
2019-05-09T03:38:11.721Z,46496.00
2019-05-09T03:39:11.714Z,48000.00
2019-05-09T03:40:11.753Z,48416.00
2019-05-09T03:41:11.692Z,50016.00
2019-05-09T03:42:11.679Z,49856.00
2019-05-09T03:43:11.694Z,49600.00
2019-05-09T03:44:11.670Z,48928.00
2019-05-09T03:45:11.653Z,49728.00
2019-05-09T03:46:11.648Z,50688.00
2019-05-09T03:47:11.626Z,51776.00
2019-05-09T03:48:11.620Z,50816.00
2019-05-09T03:49:11.607Z,51456.00
2019-05-09T03:50:11.718Z,50816.00
2019-05-09T03:51:11.622Z,50816.00
2019-05-09T03:52:11.569Z,51392.00
2019-05-09T03:53:11.558Z,51136.00
2019-05-09T03:54:11.583Z,51616.00
2019-05-09T03:55:11.538Z,53024.00
2019-05-09T03:56:11.540Z,54400.00
2019-05-09T03:57:11.524Z,53760.00
2019-05-09T03:58:11.503Z,53472.00
2019-05-09T03:59:11.494Z,52608.00
2019-05-09T04:00:11.483Z,52352.00
2019-05-09T04:01:11.479Z,54144.00
2019-05-09T04:02:11.516Z,53568.00
2019-05-09T04:03:11.456Z,52672.00
2019-05-09T04:04:11.447Z,53280.00
2019-05-09T04:05:24.638Z,54336.00
2019-05-09T04:06:11.421Z,53856.00
2019-05-09T04:07:11.415Z,54240.00
2019-05-09T04:08:11.419Z,54944.00
2019-05-09T04:09:11.413Z,54208.00
2019-05-09T04:10:11.376Z,54112.00
2019-05-09T04:11:11.364Z,55104.00
2019-05-09T04:12:11.352Z,55904.00
2019-05-09T04:13:11.389Z,55840.00
2019-05-09T04:14:11.368Z,54592.00
2019-05-09T04:15:11.327Z,53216.00
2019-05-09T04:16:11.309Z,53984.00
2019-05-09T04:17:11.312Z,55616.00
2019-05-09T04:18:11.298Z,54592.00
2019-05-09T04:19:11.275Z,52800.00
2019-05-09T04:20:11.598Z,53664.00
2019-05-09T04:21:11.279Z,54848.00
2019-05-09T04:22:11.245Z,54976.00
2019-05-09T04:23:11.232Z,55360.00
2019-05-09T04:24:11.239Z,55232.00
2019-05-09T04:25:11.247Z,54112.00
2019-05-09T04:26:11.207Z,53760.00
2019-05-09T04:27:11.189Z,54304.00
2019-05-09T04:28:11.189Z,54016.00
2019-05-09T04:29:11.182Z,52992.00
2019-05-09T04:30:11.161Z,53760.00
2019-05-09T04:31:11.264Z,54112.00
2019-05-09T04:32:11.138Z,54784.00
2019-05-09T04:33:11.143Z,53376.00
2019-05-09T04:34:11.122Z,50784.00
2019-05-09T04:35:11.129Z,49376.00
2019-05-09T04:36:24.167Z,49984.00
2019-05-09T04:37:12.304Z,50176.00
2019-05-09T04:38:11.077Z,49600.00
2019-05-09T04:39:12.929Z,48288.00
2019-05-09T04:40:12.051Z,48800.00
2019-05-09T04:41:11.045Z,48320.00
2019-05-09T04:42:11.116Z,47200.00
2019-05-09T04:43:18.344Z,47616.00
2019-05-09T04:44:17.159Z,47808.00
2019-05-09T04:45:12.000Z,46624.00
2019-05-09T04:46:12.921Z,45184.00
2019-05-09T04:47:12.012Z,45408.00
2019-05-09T04:48:13.149Z,47520.00
2019-05-09T04:49:11.952Z,47072.00
2019-05-09T04:50:15.445Z,46688.00
2019-05-09T04:51:11.967Z,47904.00
2019-05-09T04:52:10.925Z,46784.00
2019-05-09T04:53:10.918Z,43936.00
2019-05-09T04:54:10.988Z,41600.00
2019-05-09T04:55:10.890Z,42464.00
2019-05-09T04:56:10.875Z,41024.00
2019-05-09T04:57:10.864Z,40256.00
2019-05-09T04:58:10.862Z,42656.00
2019-05-09T04:59:10.847Z,41632.00
2019-05-09T05:00:10.871Z,38848.00
2019-05-09T05:01:10.872Z,38304.00
2019-05-09T05:02:10.815Z,37632.00
2019-05-09T05:03:10.913Z,35232.00
2019-05-09T05:04:10.793Z,35808.00
2019-05-09T05:05:10.777Z,35744.00
2019-05-09T05:06:10.779Z,35520.00
2019-05-09T05:07:23.701Z,33248.00
2019-05-09T05:08:11.639Z,24224.00
2019-05-09T05:09:10.739Z,18016.00
2019-05-09T05:10:10.728Z,16960.00
2019-05-09T05:11:10.746Z,16960.00
2019-05-09T05:12:10.714Z,17440.00
2019-05-09T05:13:23.266Z,17888.00
2019-05-09T05:14:11.691Z,17408.00
2019-05-09T05:15:10.679Z,16640.00
2019-05-09T05:16:10.680Z,16064.00
2019-05-09T05:17:11.515Z,15948.00
2019-05-09T05:18:10.635Z,16192.00
2019-05-09T05:19:10.713Z,16480.00
2019-05-09T05:20:10.616Z,17568.00
2019-05-09T05:21:10.604Z,18592.00
2019-05-09T05:22:10.636Z,19328.00
2019-05-09T05:23:10.594Z,21536.00
2019-05-09T05:24:10.578Z,31776.00
2019-05-09T05:25:10.563Z,43040.00
2019-05-09T05:26:10.627Z,41280.00
2019-05-09T05:27:10.561Z,32224.00
2019-05-09T05:28:10.585Z,30144.00
2019-05-09T05:29:10.522Z,31328.00
2019-05-09T05:30:10.517Z,31392.00
2019-05-09T05:31:10.571Z,27712.00
2019-05-09T05:32:10.507Z,23104.00
2019-05-09T05:33:10.479Z,22336.00
2019-05-09T05:34:10.486Z,21504.00
2019-05-09T05:35:10.456Z,23680.00
2019-05-09T05:36:10.444Z,25280.00
2019-05-09T05:37:10.437Z,21888.00
2019-05-09T05:38:23.061Z,19552.00
2019-05-09T05:39:10.409Z,19264.00
2019-05-09T05:40:10.451Z,20288.00
2019-05-09T05:41:10.390Z,21984.00
2019-05-09T05:42:10.382Z,23168.00
2019-05-09T05:43:10.374Z,21472.00
2019-05-09T05:44:10.441Z,19552.00
2019-05-09T05:45:10.350Z,19776.00
2019-05-09T05:46:10.347Z,20160.00
2019-05-09T05:47:10.399Z,18752.00
2019-05-09T05:48:10.353Z,19072.00
2019-05-09T05:49:10.311Z,20736.00
2019-05-09T05:50:10.323Z,19840.00
2019-05-09T05:51:10.340Z,19584.00
2019-05-09T05:52:10.377Z,19008.00
2019-05-09T05:53:10.291Z,18656.00
2019-05-09T05:54:10.258Z,17376.00
2019-05-09T05:55:10.258Z,17472.00
2019-05-09T05:56:10.243Z,19424.00
2019-05-09T05:57:10.305Z,20160.00
2019-05-09T05:58:10.216Z,20224.00
2019-05-09T05:59:10.205Z,20320.00
2019-05-09T06:00:10.224Z,19072.00
2019-05-09T06:01:10.185Z,19264.00
2019-05-09T06:02:34.120Z,20224.00
2019-05-09T06:03:10.167Z,19488.00
2019-05-09T06:04:10.145Z,19616.00
2019-05-09T06:05:11.086Z,20320.00
2019-05-09T06:06:10.132Z,20640.00
2019-05-09T06:07:10.117Z,19488.00
2019-05-09T06:08:10.149Z,19296.00
2019-05-09T06:09:24.361Z,21536.00
2019-05-09T06:10:10.765Z,24000.00
2019-05-09T06:11:12.186Z,25184.00
2019-05-09T06:12:10.112Z,23104.00
2019-05-09T06:13:10.088Z,26304.00
2019-05-09T06:14:11.851Z,28832.00
2019-05-09T06:15:10.084Z,25664.00
2019-05-09T06:16:10.034Z,28384.00
2019-05-09T06:17:10.033Z,32192.00
2019-05-09T06:18:09.996Z,35040.00
2019-05-09T06:19:09.985Z,38240.00
2019-05-09T06:20:10.019Z,43520.00
2019-05-09T06:21:09.955Z,48000.00
2019-05-09T06:22:09.953Z,39584.00
2019-05-09T06:23:09.940Z,29184.00
2019-05-09T06:24:09.928Z,24320.00
2019-05-09T06:25:10.260Z,19712.00
2019-05-09T06:26:10.457Z,12948.00
2019-05-09T06:27:10.583Z,10752.00
2019-05-09T06:28:09.881Z,10588.00
2019-05-09T06:29:09.887Z,10508.00
2019-05-09T06:30:10.000Z,10432.00
2019-05-09T06:31:09.862Z,10380.00
2019-05-09T06:32:09.909Z,10348.00
2019-05-09T06:33:09.844Z,10360.00
2019-05-09T06:34:09.817Z,10320.00
2019-05-09T06:35:09.817Z,10300.00
2019-05-09T06:36:09.812Z,10260.00
2019-05-09T06:37:09.803Z,10240.00
2019-05-09T06:38:09.908Z,10212.00
2019-05-09T06:39:09.783Z,10216.00
2019-05-09T06:40:21.965Z,10232.00
2019-05-09T06:41:12.144Z,10212.00
2019-05-09T06:42:09.770Z,10204.00
2019-05-09T06:43:09.755Z,10212.00
2019-05-09T06:44:16.445Z,10180.00
2019-05-09T06:45:10.775Z,10056.00
2019-05-09T06:46:10.141Z,10176.00
2019-05-09T06:47:10.754Z,10184.00
2019-05-09T06:48:09.892Z,10188.00
2019-05-09T06:49:26.792Z,10164.00
2019-05-09T06:50:11.032Z,10180.00
2019-05-09T06:51:27.686Z,10220.00
2019-05-09T06:52:10.069Z,10216.00
2019-05-09T06:54:19.211Z,10112.00
2019-05-09T06:55:19.299Z,10108.00
2019-05-09T06:56:19.162Z,10120.00
2019-05-09T06:57:19.163Z,10112.00
2019-05-09T06:58:19.171Z,10112.00
2019-05-09T06:59:19.279Z,10116.00
2019-05-09T07:00:19.114Z,10120.00
2019-05-09T07:01:19.112Z,10156.00
2019-05-09T07:02:19.101Z,10136.00
2019-05-09T07:03:19.079Z,10124.00
2019-05-09T07:04:19.097Z,10132.00
2019-05-09T07:05:19.058Z,10132.00
2019-05-09T07:06:19.090Z,10116.00
2019-05-09T07:07:19.085Z,10120.00
2019-05-09T07:08:19.023Z,10072.00
2019-05-09T07:09:19.015Z,10128.00
2019-05-09T07:10:18.999Z,10128.00
2019-05-09T07:11:19.332Z,10144.00
2019-05-09T07:12:18.985Z,10148.00
2019-05-09T07:13:18.967Z,10160.00
2019-05-09T07:14:28.671Z,10168.00
2019-05-09T07:15:19.946Z,10176.00
2019-05-09T07:16:18.955Z,10176.00
2019-05-09T07:17:18.944Z,10168.00
2019-05-09T07:18:18.910Z,10116.00
2019-05-09T07:19:18.908Z,10100.00
2019-05-09T07:20:18.897Z,10528.00
2019-05-09T07:21:19.166Z,10528.00
2019-05-09T07:22:18.866Z,10532.00
2019-05-09T07:23:18.864Z,10536.00
2019-05-09T07:24:28.613Z,10168.00
2019-05-09T07:25:18.840Z,10172.00
2019-05-09T07:26:18.821Z,10176.00
2019-05-09T07:27:18.812Z,10196.00
2019-05-09T07:28:18.836Z,10204.00
2019-05-09T07:29:18.789Z,10220.00
2019-05-09T07:30:18.775Z,10232.00
2019-05-09T07:31:18.763Z,10232.00
2019-05-09T07:32:19.587Z,10156.00
2019-05-09T07:33:19.467Z,10208.00
2019-05-09T07:34:18.758Z,10216.00
2019-05-09T07:35:18.817Z,10216.00
2019-05-09T07:36:19.043Z,10220.00
2019-05-09T07:37:18.717Z,10212.00
2019-05-09T07:38:18.704Z,10216.00
2019-05-09T07:39:18.721Z,10204.00
2019-05-09T07:40:18.670Z,10228.00
2019-05-09T07:41:18.667Z,10220.00
2019-05-09T07:42:18.645Z,10228.00
2019-05-09T07:43:18.643Z,10236.00
2019-05-09T07:44:18.624Z,10236.00
2019-05-09T07:45:18.628Z,10240.00
2019-05-09T07:46:18.598Z,10244.00
2019-05-09T07:47:18.647Z,10260.00
2019-05-09T07:48:18.582Z,10248.00
2019-05-09T07:49:18.578Z,10252.00
2019-05-09T07:50:19.158Z,10252.00
2019-05-09T07:51:18.589Z,10228.00
2019-05-09T07:52:18.748Z,10240.00
2019-05-09T07:53:18.561Z,10244.00
2019-05-09T07:54:25.098Z,10236.00
2019-05-09T07:56:33.002Z,10240.00
2019-05-09T07:57:32.709Z,10252.00
2019-05-09T07:58:32.682Z,10272.00
2019-05-09T07:59:33.444Z,10232.00
2019-05-09T08:00:32.743Z,10248.00
2019-05-09T08:01:32.675Z,10192.00
2019-05-09T08:02:32.678Z,10216.00
2019-05-09T08:03:32.660Z,10232.00
2019-05-09T08:04:32.690Z,10196.00
2019-05-09T08:05:32.658Z,10156.00
2019-05-09T08:06:32.588Z,10272.00
2019-05-09T08:07:33.188Z,10268.00
2019-05-09T08:08:32.735Z,10260.00
2019-05-09T08:09:32.548Z,10280.00
2019-05-09T08:10:33.412Z,10292.00
2019-05-09T08:11:32.732Z,10304.00
2019-05-09T08:12:32.568Z,10316.00
2019-05-09T08:13:32.534Z,10304.00
2019-05-09T08:14:32.501Z,10284.00
2019-05-09T08:15:32.492Z,10328.00
2019-05-09T08:16:32.480Z,10312.00
2019-05-09T08:17:32.457Z,10316.00
2019-05-09T08:18:32.466Z,10316.00
2019-05-09T08:19:32.641Z,10328.00
2019-05-09T08:20:32.426Z,10312.00
2019-05-09T08:21:32.453Z,10368.00
2019-05-09T08:22:32.787Z,10296.00
2019-05-09T08:23:32.398Z,10284.00
2019-05-09T08:24:32.394Z,10300.00
2019-05-09T08:25:32.378Z,10284.00
2019-05-09T08:26:47.807Z,10316.00
2019-05-09T08:27:32.431Z,10296.00
2019-05-09T08:28:32.341Z,10300.00
2019-05-09T08:29:32.331Z,10292.00
2019-05-09T08:30:36.136Z,10320.00
2019-05-09T08:31:33.320Z,10264.00
2019-05-09T08:32:32.338Z,10252.00
2019-05-09T08:33:32.296Z,10292.00
2019-05-09T08:34:32.286Z,10288.00
2019-05-09T08:35:32.268Z,10260.00
2019-05-09T08:36:32.251Z,10300.00
2019-05-09T08:37:32.262Z,10224.00
2019-05-09T08:38:32.224Z,10284.00
2019-05-09T08:39:32.300Z,10272.00
2019-05-09T08:40:32.235Z,10296.00
2019-05-09T08:41:32.243Z,10300.00
2019-05-09T08:42:32.197Z,10208.00
2019-05-09T08:43:32.200Z,10276.00
2019-05-09T08:44:32.202Z,10300.00
2019-05-09T08:45:32.411Z,10288.00
2019-05-09T08:46:32.226Z,10272.00
2019-05-09T08:47:32.139Z,10272.00
2019-05-09T08:48:32.489Z,10284.00
2019-05-09T08:49:32.107Z,10292.00
2019-05-09T08:50:32.112Z,10280.00
2019-05-09T08:51:37.006Z,10256.00
2019-05-09T08:52:33.080Z,10240.00
2019-05-09T08:53:32.063Z,10208.00
2019-05-09T08:54:32.091Z,10200.00
2019-05-09T08:55:32.040Z,10216.00
2019-05-09T08:56:32.032Z,10204.00
2019-05-09T08:57:44.594Z,10192.00
2019-05-09T08:58:32.988Z,10168.00
2019-05-09T08:59:31.993Z,10104.00
2019-05-09T09:00:32.027Z,10112.00
2019-05-09T09:01:49.649Z,10148.00
2019-05-09T09:02:32.994Z,10092.00
2019-05-09T09:03:32.009Z,10148.00
2019-05-09T09:04:31.937Z,10132.00
2019-05-09T09:05:32.065Z,10112.00
2019-05-09T09:06:32.025Z,10104.00
2019-05-09T09:07:31.907Z,10076.00
2019-05-09T09:08:32.258Z,10112.00
2019-05-09T09:09:31.924Z,10084.00
2019-05-09T09:10:31.878Z,10092.00
2019-05-09T09:11:31.885Z,10080.00
2019-05-09T09:12:34.524Z,10092.00
2019-05-09T09:13:31.878Z,10084.00
2019-05-09T09:14:31.924Z,10064.00
2019-05-09T09:15:56.083Z,10060.00
2019-05-09T09:16:32.824Z,10036.00
2019-05-09T09:17:31.892Z,10044.00
2019-05-09T09:18:31.787Z,10036.00
2019-05-09T09:19:31.874Z,10016.00
2019-05-09T09:20:31.836Z,10008.00
2019-05-09T09:21:31.782Z,9968.00
2019-05-09T09:22:31.756Z,9964.00
2019-05-09T09:23:43.242Z,9948.00
2019-05-09T09:24:32.729Z,10000.00
2019-05-09T09:25:31.722Z,9980.00
2019-05-09T09:26:31.719Z,9956.00
2019-05-09T09:27:31.716Z,9960.00
2019-05-09T09:28:44.775Z,9948.00
2019-05-09T09:29:31.670Z,9948.00
2019-05-09T09:30:31.663Z,9916.00
2019-05-09T09:31:31.643Z,9924.00
2019-05-09T09:32:31.767Z,9940.00
2019-05-09T09:33:31.709Z,9932.00
2019-05-09T09:34:31.617Z,9936.00
2019-05-09T09:35:31.612Z,9892.00
2019-05-09T09:36:31.593Z,9940.00
2019-05-09T09:37:45.043Z,9884.00
2019-05-09T09:38:32.648Z,9896.00
2019-05-09T09:39:31.557Z,9864.00
2019-05-09T09:40:31.547Z,9864.00
2019-05-09T09:41:31.539Z,9848.00
2019-05-09T09:42:31.701Z,9840.00
2019-05-09T09:43:31.508Z,9848.00
2019-05-09T09:44:32.436Z,9840.00
2019-05-09T09:45:31.504Z,9836.00
2019-05-09T09:46:31.661Z,9828.00
2019-05-09T09:47:31.526Z,9820.00
2019-05-09T09:48:31.460Z,9820.00
2019-05-09T09:49:31.482Z,9800.00
2019-05-09T09:50:31.443Z,9812.00
2019-05-09T09:51:31.429Z,9784.00
2019-05-09T09:52:34.266Z,9760.00
2019-05-09T09:53:31.422Z,9744.00
2019-05-09T09:54:31.429Z,9720.00
2019-05-09T09:55:31.451Z,9708.00
2019-05-09T09:56:31.411Z,9708.00
2019-05-09T09:57:31.354Z,9668.00
2019-05-09T09:58:31.346Z,9700.00
2019-05-09T09:59:44.385Z,9680.00
2019-05-09T10:00:31.351Z,9696.00
2019-05-09T10:01:31.313Z,9688.00
2019-05-09T10:02:31.323Z,9668.00
2019-05-09T10:03:31.306Z,9660.00
2019-05-09T10:04:31.293Z,9660.00
2019-05-09T10:05:31.321Z,9656.00
2019-05-09T10:06:31.379Z,9640.00
2019-05-09T10:07:31.244Z,9632.00
2019-05-09T10:08:31.234Z,9628.00
2019-05-09T10:09:31.227Z,9688.00
2019-05-09T10:10:31.243Z,10248.00
2019-05-09T10:11:32.200Z,10232.00
2019-05-09T10:12:31.450Z,10204.00
2019-05-09T10:13:32.010Z,10212.00
2019-05-09T10:14:31.168Z,10216.00
2019-05-09T10:15:31.162Z,10200.00
2019-05-09T10:16:32.688Z,10188.00
2019-05-09T10:17:31.208Z,9536.00
2019-05-09T10:18:39.646Z,9516.00
2019-05-09T10:19:31.110Z,9528.00
2019-05-09T10:20:31.126Z,9536.00
2019-05-09T10:21:31.092Z,9512.00
2019-05-09T10:22:31.157Z,9504.00
2019-05-09T10:23:31.072Z,9504.00
2019-05-09T10:24:31.061Z,9468.00
2019-05-09T10:25:31.042Z,9468.00
2019-05-09T10:26:31.037Z,9460.00
2019-05-09T10:27:31.343Z,9460.00
2019-05-09T10:28:31.126Z,9444.00
2019-05-09T10:29:31.016Z,9432.00
2019-05-09T10:30:30.988Z,9428.00
2019-05-09T10:31:30.978Z,9420.00
2019-05-09T10:32:31.036Z,9428.00
2019-05-09T10:33:30.973Z,9424.00
2019-05-09T10:34:31.072Z,9420.00
2019-05-09T10:35:30.934Z,9368.00
2019-05-09T10:36:30.925Z,9376.00
2019-05-09T10:37:30.959Z,9364.00
2019-05-09T10:38:30.920Z,9376.00
2019-05-09T10:39:30.894Z,9364.00
2019-05-09T10:40:31.107Z,9316.00
2019-05-09T10:41:30.899Z,9300.00
2019-05-09T10:42:30.920Z,9304.00
2019-05-09T10:43:37.955Z,9284.00
2019-05-09T10:44:31.926Z,9276.00
2019-05-09T10:45:31.625Z,9268.00
2019-05-09T10:46:48.459Z,9276.00
2019-05-09T10:47:32.036Z,9256.00
2019-05-09T10:48:30.811Z,9240.00
2019-05-09T10:49:43.668Z,9240.00
2019-05-09T10:50:33.750Z,9240.00
2019-05-09T10:51:30.757Z,9224.00
2019-05-09T10:52:30.783Z,9200.00
2019-05-09T10:53:30.733Z,9184.00
2019-05-09T10:54:30.724Z,9184.00
2019-05-09T10:55:30.733Z,9172.00
2019-05-09T10:56:30.731Z,9144.00
2019-05-09T10:57:32.324Z,9104.00
2019-05-09T10:58:30.684Z,9132.00
2019-05-09T10:59:30.838Z,9100.00
2019-05-09T11:00:30.662Z,9104.00
2019-05-09T11:01:30.655Z,9108.00
2019-05-09T11:02:30.646Z,9048.00
2019-05-09T11:03:30.621Z,9096.00
2019-05-09T11:04:30.717Z,9072.00
2019-05-09T11:05:30.601Z,9024.00
2019-05-09T11:06:30.604Z,9064.00
2019-05-09T11:07:30.585Z,9020.00
2019-05-09T11:08:30.690Z,9044.00
2019-05-09T11:09:30.588Z,9044.00
2019-05-09T11:10:32.825Z,9016.00
2019-05-09T11:11:30.617Z,9036.00
2019-05-09T11:12:30.530Z,9004.00
2019-05-09T11:13:30.525Z,8992.00
2019-05-09T11:14:36.835Z,8952.00
2019-05-09T11:15:31.496Z,8956.00
2019-05-09T11:16:41.957Z,8944.00
2019-05-09T11:17:31.465Z,8924.00
2019-05-09T11:18:30.457Z,8912.00
2019-05-09T11:19:30.450Z,8916.00
2019-05-09T11:20:40.825Z,8904.00
2019-05-09T11:21:30.422Z,8880.00
2019-05-09T11:22:30.425Z,8884.00
2019-05-09T11:23:30.405Z,8908.00
2019-05-09T11:24:41.742Z,8856.00
2019-05-09T11:25:31.382Z,8824.00
2019-05-09T11:26:30.375Z,8824.00
2019-05-09T11:27:30.358Z,8800.00
2019-05-09T11:28:30.360Z,8796.00
2019-05-09T11:29:30.336Z,8772.00
2019-05-09T11:30:30.365Z,8764.00
2019-05-09T11:31:30.327Z,8756.00
2019-05-09T11:32:30.304Z,8748.00
2019-05-09T11:33:30.312Z,8736.00
2019-05-09T11:34:30.284Z,8712.00
2019-05-09T11:35:30.276Z,8696.00
2019-05-09T11:36:30.265Z,8696.00
2019-05-09T11:37:30.251Z,8664.00
2019-05-09T11:38:36.189Z,8648.00
2019-05-09T11:39:36.596Z,8624.00
2019-05-09T11:40:31.233Z,8612.00
2019-05-09T11:41:30.495Z,8612.00
2019-05-09T11:42:33.269Z,8564.00
2019-05-09T11:43:30.180Z,8604.00
2019-05-09T11:44:30.174Z,8576.00
2019-05-09T11:45:30.184Z,8552.00
2019-05-09T11:46:30.235Z,8548.00
2019-05-09T11:47:39.466Z,8528.00
2019-05-09T11:48:31.123Z,8520.00
2019-05-09T11:49:30.119Z,8468.00
2019-05-09T11:50:30.120Z,8488.00
2019-05-09T11:51:43.179Z,8468.00
2019-05-09T11:52:30.082Z,8440.00
2019-05-09T11:53:30.102Z,8420.00
2019-05-09T11:54:30.062Z,8412.00
2019-05-09T11:55:36.013Z,8400.00
2019-05-09T11:56:31.045Z,8400.00
2019-05-09T11:57:31.472Z,8364.00
2019-05-09T11:58:30.042Z,8360.00
2019-05-09T11:59:30.009Z,8352.00
2019-05-09T12:00:29.995Z,8352.00
2019-05-09T12:01:29.992Z,8324.00